Home > Products > Valid Products > TAF

000
FTUS42 KTAE 290023 AAA
TAFABY
TAF AMD
KABY 290023Z 2900/2924 VRB03KT P6SM FEW060
      TEMPO 2900/2901 35010G20KT BKN050
     FM292100 33007KT 6SM TSRA BKN040CB=



000
FTUS42 KTAE 282320
TAFVLD
TAF
KVLD 282320Z 2900/2924 09003KT P6SM FEW060
     FM292100 33007KT 6SM TSRA BKN040CB=



000
FTUS42 KTAE 282320
TAFVLD
TAF
KVLD 282320Z 2900/2924 09003KT P6SM FEW060
     FM292100 33007KT 6SM TSRA BKN040CB=



000
FTUS42 KTAE 282320
TAFTLH
TAF
KTLH 282320Z 2900/2924 30004KT P6SM FEW060
     FM292100 18007KT 6SM TSRA BKN040CB=



000
FTUS42 KTAE 282320
TAFABY
TAF
KABY 282320Z 2900/2924 VRB03KT P6SM FEW060
      TEMPO 2900/2902 35010G20KT 5SM TSRA BKN040CB
     FM292100 33007KT 6SM TSRA BKN040CB=



000
FTUS42 KTAE 282320
TAFDHN
TAF
KDHN 282320Z 2900/2924 30004KT P6SM FEW060
     FM292100 33007KT 6SM TSRA BKN040CB=



000
FTUS42 KTAE 282320
TAFTLH
TAF
KTLH 282320Z 2900/2924 30004KT P6SM FEW060
     FM292100 18007KT 6SM TSRA BKN040CB=



000
FTUS42 KTAE 282320
TAFDHN
TAF
KDHN 282320Z 2900/2924 30004KT P6SM FEW060
     FM292100 33007KT 6SM TSRA BKN040CB=



000
FTUS42 KTAE 282320
TAFABY
TAF
KABY 282320Z 2900/2924 VRB03KT P6SM FEW060
      TEMPO 2900/2902 35010G20KT 5SM TSRA BKN040CB
     FM292100 33007KT 6SM TSRA BKN040CB=



000
FTUS42 KTAE 282031 AAA
TAFDHN
TAF AMD
KDHN 282031Z 2821/2918 03005KT P6SM SCT050
      TEMPO 2821/2823 VRB15G25KT 3SM TSRA BKN030CB
     FM290000 VRB03KT P6SM SCT250=



000
FTUS42 KTAE 281720
TAFTLH
TAF
KTLH 281720Z 2818/2918 02006KT P6SM SCT050
     FM290000 VRB03KT P6SM SCT250=



000
FTUS42 KTAE 281720
TAFVLD
TAF
KVLD 281720Z 2818/2918 08005KT P6SM SCT050
     FM290000 00000KT P6SM SCT250=



000
FTUS42 KTAE 281720
TAFABY
TAF
KABY 281720Z 2818/2918 VRB03KT P6SM SCT050=



000
FTUS42 KTAE 281720
TAFDHN
TAF
KDHN 281720Z 2818/2918 32007KT P6SM SCT050
     FM290000 VRB03KT P6SM SCT250=



000
FTUS42 KTAE 281159 AAA
TAFVLD
TAF AMD
KVLD 281159Z 2812/2912 00000KT 6SM BR FEW002
      TEMPO 2812/2814 3SM BR OVC002
     FM281400 VRB04KT P6SM SCT040
     FM290000 00000KT P6SM SCT250=



000
FTUS42 KTAE 281159 AAA
TAFVLD
TAF AMD
KVLD 281159Z 2812/2912 00000KT 6SM BR FEW002
      TEMPO 2812/2814 3SM BR OVC002
     FM281400 VRB04KT P6SM SCT040
     FM290000 00000KT P6SM SCT250=



000
FTUS42 KTAE 281120
TAFTLH
TAF
KTLH 281120Z 2812/2912 32003KT P6SM SKC
     FM281500 VRB04KT P6SM SCT040
     FM290000 22003KT P6SM SCT250=



000
FTUS42 KTAE 281120
TAFDHN
TAF
KDHN 281120Z 2812/2912 33006KT P6SM SCT050
     FM290000 VRB03KT P6SM SKC=



000
FTUS42 KTAE 281120
TAFVLD
TAF
KVLD 281120Z 2812/2912 00000KT 6SM BR FEW002
      TEMPO 2812/2813 3SM BR SCT002
     FM281300 VRB04KT P6SM SCT040
     FM290000 00000KT P6SM SCT250=



000
FTUS42 KTAE 281120
TAFABY
TAF
KABY 281120Z 2812/2912 30005KT P6SM SCT050
     FM290000 VRB02KT P6SM SKC=



000
FTUS42 KTAE 281050 AAB
TAFVLD
TAF AMD
KVLD 281050Z 2811/2906 00000KT 2SM BR FEW003
      TEMPO 2811/2812 BKN002
     FM281300 VRB04KT P6SM SCT040
     FM290000 00000KT P6SM SCT250=



000
FTUS42 KTAE 280630 AAA
TAFVLD
TAF AMD
KVLD 280630Z 2807/2906 00000KT 2SM BR FEW003
      TEMPO 2807/2811 1SM BR BKN003
     FM281300 VRB04KT P6SM SCT040
     FM290000 00000KT P6SM SCT250=



000
FTUS42 KTAE 280630 AAA
TAFVLD
TAF AMD
KVLD 280630Z 2807/2906 00000KT 2SM BR FEW003
      TEMPO 2807/2811 1SM BR BKN003
     FM281300 VRB04KT P6SM SCT040
     FM290000 00000KT P6SM SCT250=



000
FTUS42 KTAE 280521
TAFVLD
TAF
KVLD 280521Z 2806/2906 00000KT P6SM SCT007
      TEMPO 2810/2813 3SM BR BKN007
     FM281300 VRB04KT P6SM SCT040
     FM290000 00000KT P6SM SCT250=



000
FTUS42 KTAE 280521
TAFTLH
TAF
KTLH 280521Z 2806/2906 00000KT P6SM FEW090
     FM281500 VRB04KT P6SM SCT040
     FM290000 22003KT P6SM SCT250=



000
FTUS42 KTAE 280521
TAFDHN
TAF
KDHN 280521Z 2806/2906 33006KT P6SM SCT050=



000
FTUS42 KTAE 280521
TAFABY
TAF
KABY 280521Z 2806/2906 30005KT P6SM SCT050=



000
FTUS42 KTAE 272320
TAFTLH
TAF
KTLH 272320Z 2800/2824 09003KT P6SM SCT070
     FM281500 04007KT P6SM SCT040=



000
FTUS42 KTAE 272320
TAFTLH
TAF
KTLH 272320Z 2800/2824 09003KT P6SM SCT070
     FM281500 04007KT P6SM SCT040=



000
FTUS42 KTAE 272320
TAFVLD
TAF
KVLD 272320Z 2800/2824 09003KT P6SM SCT100
      TEMPO 2811/2813 3SM BR SCT002
     FM281500 04007KT P6SM SCT040=



000
FTUS42 KTAE 272320
TAFABY
TAF
KABY 272320Z 2800/2824 03005KT P6SM FEW050=



000
FTUS42 KTAE 272320
TAFDHN
TAF
KDHN 272320Z 2800/2824 36005KT P6SM FEW050=



000
FTUS42 KTAE 272320
TAFABY
TAF
KABY 272320Z 2800/2824 03005KT P6SM FEW050=



000
FTUS42 KTAE 272320
TAFDHN
TAF
KDHN 272320Z 2800/2824 36005KT P6SM FEW050=



000
FTUS42 KTAE 272320
TAFVLD
TAF
KVLD 272320Z 2800/2824 09003KT P6SM SCT100
      TEMPO 2811/2813 3SM BR SCT002
     FM281500 04007KT P6SM SCT040=



000
FTUS42 KTAE 271726
TAFTLH
TAF
KTLH 271726Z 2718/2818 04008KT P6SM VCSH SCT040
     FM272300 VRB03KT P6SM SKC=



000
FTUS42 KTAE 271726
TAFTLH
TAF
KTLH 271726Z 2718/2818 04008KT P6SM VCSH SCT040
     FM272300 VRB03KT P6SM SKC=



000
FTUS42 KTAE 271726
TAFDHN
TAF
KDHN 271726Z 2718/2818 05010KT P6SM FEW050
     FM280000 VRB03KT P6SM SKC=



000
FTUS42 KTAE 271726
TAFABY
TAF
KABY 271726Z 2718/2818 06008KT P6SM FEW050
     FM280000 VRB03KT P6SM SKC=



000
FTUS42 KTAE 271726
TAFVLD
TAF
KVLD 271726Z 2718/2818 03008KT P6SM SHRA BKN040
     FM280000 VRB02KT P6SM FEW050=



000
FTUS42 KTAE 271726
TAFVLD
TAF
KVLD 271726Z 2718/2818 03008KT P6SM SHRA BKN040
     FM280000 VRB02KT P6SM FEW050=



000
FTUS42 KTAE 271726
TAFDHN
TAF
KDHN 271726Z 2718/2818 05010KT P6SM FEW050
     FM280000 VRB03KT P6SM SKC=



000
FTUS42 KTAE 271726
TAFABY
TAF
KABY 271726Z 2718/2818 06008KT P6SM FEW050
     FM280000 VRB03KT P6SM SKC=



000
FTUS42 KTAE 271428 AAB
TAFVLD
TAF AMD
KVLD 271428Z 2714/2812 03003KT P6SM SKC
      TEMPO 2714/2716 BKN010
     FM271600 05010KT P6SM BKN030
     FM280000 VRB03KT P6SM SKC=



000
FTUS42 KTAE 271136 AAA
TAFVLD
TAF AMD
KVLD 271136Z 2712/2812 03003KT P6SM SKC
      TEMPO 2712/2713 BKN009
     FM271500 05010KT P6SM SCT050
     FM280000 VRB03KT P6SM SKC=



000
FTUS42 KTAE 271120
TAFVLD
TAF
KVLD 271120Z 2712/2812 03003KT P6SM SKC
     FM271500 05010KT P6SM SCT050
     FM280000 VRB03KT P6SM SKC=



000
FTUS42 KTAE 271120
TAFABY
TAF
KABY 271120Z 2712/2812 00000KT P6SM SKC
     FM271400 05011KT P6SM FEW050
     FM280000 VRB03KT P6SM SKC=



000
FTUS42 KTAE 271120
TAFABY
TAF
KABY 271120Z 2712/2812 00000KT P6SM SKC
     FM271400 05011KT P6SM FEW050
     FM280000 VRB03KT P6SM SKC=



000
FTUS42 KTAE 271120
TAFDHN
TAF
KDHN 271120Z 2712/2812 VRB03KT P6SM SKC
     FM271400 05010KT P6SM SKC
     FM280000 VRB03KT P6SM SKC=



000
FTUS42 KTAE 271120
TAFVLD
TAF
KVLD 271120Z 2712/2812 03003KT P6SM SKC
     FM271500 05010KT P6SM SCT050
     FM280000 VRB03KT P6SM SKC=



000
FTUS42 KTAE 271120
TAFDHN
TAF
KDHN 271120Z 2712/2812 VRB03KT P6SM SKC
     FM271400 05010KT P6SM SKC
     FM280000 VRB03KT P6SM SKC=



000
FTUS42 KTAE 271120
TAFTLH
TAF
KTLH 271120Z 2712/2812 VRB03KT P6SM SKC
     FM271400 05010KT P6SM FEW050
     FM280000 VRB03KT P6SM SKC=



000
FTUS42 KTAE 271120
TAFTLH
TAF
KTLH 271120Z 2712/2812 VRB03KT P6SM SKC
     FM271400 05010KT P6SM FEW050
     FM280000 VRB03KT P6SM SKC=



000
FTUS42 KTAE 271028 AAA
TAFVLD
TAF AMD
KVLD 271028Z 2710/2806 03004KT P6SM SCT010
      TEMPO 2710/2712 BKN010
     FM271300 05010KT P6SM SCT050=



000
FTUS42 KTAE 270520
TAFTLH
TAF
KTLH 270520Z 2706/2806 04003KT P6SM SKC
     FM271400 05010KT P6SM FEW050=



000
FTUS42 KTAE 270520
TAFVLD
TAF
KVLD 270520Z 2706/2806 00000KT P6SM SKC
     FM271500 05010KT P6SM SCT050=



000
FTUS42 KTAE 270520
TAFABY
TAF
KABY 270520Z 2706/2806 05004KT P6SM SKC
     FM271400 05011KT P6SM FEW050=



000
FTUS42 KTAE 270520
TAFTLH
TAF
KTLH 270520Z 2706/2806 04003KT P6SM SKC
     FM271400 05010KT P6SM FEW050=



000
FTUS42 KTAE 270520
TAFDHN
TAF
KDHN 270520Z 2706/2806 08005KT P6SM SKC
     FM271400 05010KT P6SM SKC=



000
FTUS42 KTAE 270520
TAFVLD
TAF
KVLD 270520Z 2706/2806 00000KT P6SM SKC
     FM271500 05010KT P6SM SCT050=



000
FTUS42 KTAE 270520
TAFABY
TAF
KABY 270520Z 2706/2806 05004KT P6SM SKC
     FM271400 05011KT P6SM FEW050=



000
FTUS42 KTAE 270520
TAFDHN
TAF
KDHN 270520Z 2706/2806 08005KT P6SM SKC
     FM271400 05010KT P6SM SKC=



000
FTUS42 KTAE 262323
TAFDHN
TAF
KDHN 262323Z 2700/2724 08005KT P6SM SKC
     FM271400 05010KT P6SM SKC=



000
FTUS42 KTAE 262323
TAFTLH
TAF
KTLH 262323Z 2700/2724 04007KT P6SM FEW060
     FM270300 04003KT P6SM SKC
     FM271400 05010KT P6SM FEW050=



000
FTUS42 KTAE 262323
TAFVLD
TAF
KVLD 262323Z 2700/2724 06005KT P6SM FEW060
     FM270300 00000KT P6SM SKC
     FM271500 05010KT P6SM SCT050=



000
FTUS42 KTAE 262323
TAFABY
TAF
KABY 262323Z 2700/2724 05004KT P6SM SKC
     FM271400 05011KT P6SM FEW050=



000
FTUS42 KTAE 262323
TAFVLD
TAF
KVLD 262323Z 2700/2724 06005KT P6SM FEW060
     FM270300 00000KT P6SM SKC
     FM271500 05010KT P6SM SCT050=



000
FTUS42 KTAE 262323
TAFDHN
TAF
KDHN 262323Z 2700/2724 08005KT P6SM SKC
     FM271400 05010KT P6SM SKC=



000
FTUS42 KTAE 262323
TAFABY
TAF
KABY 262323Z 2700/2724 05004KT P6SM SKC
     FM271400 05011KT P6SM FEW050=



000
FTUS42 KTAE 262323
TAFTLH
TAF
KTLH 262323Z 2700/2724 04007KT P6SM FEW060
     FM270300 04003KT P6SM SKC
     FM271400 05010KT P6SM FEW050=



000
FTUS42 KTAE 261720
TAFABY
TAF
KABY 261720Z 2618/2718 07011KT P6SM FEW040
     FM270000 05005KT P6SM SKC=



000
FTUS42 KTAE 261720
TAFVLD
TAF
KVLD 261720Z 2618/2718 06008KT P6SM FEW040
     FM261900 07009KT P6SM VCTS SCT040CB
     FM270000 05005KT P6SM SCT050 BKN070=



000
FTUS42 KTAE 261720
TAFDHN
TAF
KDHN 261720Z 2618/2718 07010KT P6SM FEW040
     FM270000 05005KT P6SM SKC=



000
FTUS42 KTAE 261720
TAFTLH
TAF
KTLH 261720Z 2618/2718 07008KT P6SM FEW040
     FM262000 08010KT P6SM VCTS SCT040CB
     FM270100 04005KT P6SM SCT050 BKN070=



000
FTUS42 KTAE 261120
TAFDHN
TAF
KDHN 261120Z 2612/2712 07004KT P6SM SCT020
     FM261500 05010KT P6SM SCT040
     FM270000 02004KT P6SM SKC=



000
FTUS42 KTAE 261120
TAFTLH
TAF
KTLH 261120Z 2612/2712 VRB05KT P6SM SKC
     FM261400 07011KT P6SM FEW040
     FM262000 06008KT P6SM SCT050 BKN250=



000
FTUS42 KTAE 261120
TAFVLD
TAF
KVLD 261120Z 2612/2712 01004KT P6SM SKC
     FM261400 05010KT P6SM FEW040
     FM261900 07009KT P6SM SCT050=



000
FTUS42 KTAE 261120
TAFABY
TAF
KABY 261120Z 2612/2712 00000KT P6SM SKC
     FM261400 07011KT P6SM FEW040
     FM270000 05003KT P6SM SKC=



000
FTUS42 KTAE 260537
TAFDHN
TAF
KDHN 260537Z 2606/2706 00000KT P6SM SKC
     FM261400 05010KT P6SM FEW040
     FM270000 02004KT P6SM SKC=



000
FTUS42 KTAE 260537
TAFABY
TAF
KABY 260537Z 2606/2706 00000KT P6SM SKC
     FM261400 07011KT P6SM FEW040
     FM270000 05003KT P6SM SKC=



000
FTUS42 KTAE 260537
TAFTLH
TAF
KTLH 260537Z 2606/2706 VRB05KT P6SM SKC
     FM261400 07011KT P6SM FEW040
     FM262000 06008KT P6SM SCT050 BKN250=



000
FTUS42 KTAE 260537
TAFVLD
TAF
KVLD 260537Z 2606/2706 05004KT P6SM SKC
     FM261400 05010KT P6SM FEW040
     FM261900 07009KT P6SM SCT050=



000
FTUS42 KTAE 260537
TAFABY
TAF
KABY 260537Z 2606/2706 00000KT P6SM SKC
     FM261400 07011KT P6SM FEW040
     FM270000 05003KT P6SM SKC=



000
FTUS42 KTAE 260537
TAFVLD
TAF
KVLD 260537Z 2606/2706 05004KT P6SM SKC
     FM261400 05010KT P6SM FEW040
     FM261900 07009KT P6SM SCT050=



000
FTUS42 KTAE 260537
TAFDHN
TAF
KDHN 260537Z 2606/2706 00000KT P6SM SKC
     FM261400 05010KT P6SM FEW040
     FM270000 02004KT P6SM SKC=



000
FTUS42 KTAE 260537
TAFTLH
TAF
KTLH 260537Z 2606/2706 VRB05KT P6SM SKC
     FM261400 07011KT P6SM FEW040
     FM262000 06008KT P6SM SCT050 BKN250=



    US Dept of Commerce
    National Oceanic and Atmospheric Administration
    National Weather Service
    1325 East West Highway
    Silver Spring, MD 20910
    Page Author: NWS Internet Services Team
Disclaimer
Information Quality
Credits
Glossary
Privacy Policy
Freedom of Information Act (FOIA)
About Us
Career Opportunities